RYR69QT LEAL-EGGW
Flight info
| Callsign | RYR69QT |
|---|---|
| Flight time | N/A |
| Altitude | 38000 |
| Route | MITOS N608 COMPI Y90 USKAR DCT MOPAS DCT GIROM DCT GONUP DCT TUPAR UN861 DIKRO UM185 LUGIS M185 TELTU |
| Aircraft | B38M/M-SDE1FGHILORVWXY/HB1 |
Departure
| Time | 2026-05-03 21:20 |
|---|---|
| Airport | Alicante-Elche Miguel Hernández Airport (LEAL) |
Arrival
| Time | N/A |
|---|---|
| Airport | London Luton Airport (EGGW) |
| Time | Latitude | Longitude | Altitude | Speed | Heading |
|---|---|---|---|---|---|
| 2026-05-03 20:35 | 38.28515 | -0.55176 | 90 ft | 0 kts | 10° |
| 2026-05-03 21:05 | 38.28499 | -0.55180 | 94 ft | 4 kts | 14° |
| 2026-05-03 21:05 | 38.28474 | -0.55191 | 91 ft | 4 kts | 26° |
| 2026-05-03 21:05 | 38.28452 | -0.55210 | 91 ft | 4 kts | 52° |
| 2026-05-03 21:06 | 38.28446 | -0.55235 | 90 ft | 1 kts | 99° |
| 2026-05-03 21:06 | 38.28446 | -0.55241 | 90 ft | 0 kts | 99° |
| 2026-05-03 21:10 | 38.28443 | -0.55218 | 91 ft | 4 kts | 99° |
| 2026-05-03 21:10 | 38.28434 | -0.55172 | 91 ft | 6 kts | 117° |
| 2026-05-03 21:11 | 38.28393 | -0.55163 | 90 ft | 8 kts | 207° |
| 2026-05-03 21:11 | 38.28348 | -0.55225 | 89 ft | 11 kts | 235° |
| 2026-05-03 21:11 | 38.28325 | -0.55316 | 94 ft | 11 kts | 278° |
| 2026-05-03 21:11 | 38.28338 | -0.55413 | 98 ft | 12 kts | 279° |
| 2026-05-03 21:12 | 38.28354 | -0.55528 | 98 ft | 14 kts | 281° |
| 2026-05-03 21:12 | 38.28374 | -0.55663 | 102 ft | 17 kts | 280° |
| 2026-05-03 21:12 | 38.28397 | -0.55829 | 106 ft | 21 kts | 280° |
| 2026-05-03 21:12 | 38.28425 | -0.56028 | 110 ft | 25 kts | 280° |
| 2026-05-03 21:13 | 38.28458 | -0.56266 | 109 ft | 29 kts | 280° |
| 2026-05-03 21:13 | 38.28492 | -0.56510 | 119 ft | 27 kts | 279° |
| 2026-05-03 21:13 | 38.28524 | -0.56739 | 126 ft | 26 kts | 280° |
| 2026-05-03 21:13 | 38.28553 | -0.56946 | 136 ft | 22 kts | 280° |
| 2026-05-03 21:14 | 38.28579 | -0.57127 | 144 ft | 20 kts | 280° |
| 2026-05-03 21:14 | 38.28601 | -0.57287 | 151 ft | 17 kts | 279° |
| 2026-05-03 21:14 | 38.28584 | -0.57414 | 155 ft | 14 kts | 210° |
| 2026-05-03 21:14 | 38.28544 | -0.57429 | 157 ft | 0 kts | 192° |
| 2026-05-03 21:18 | 38.28527 | -0.57434 | 157 ft | 7 kts | 192° |
| 2026-05-03 21:19 | 38.28461 | -0.57436 | 157 ft | 8 kts | 160° |
| 2026-05-03 21:19 | 38.28435 | -0.57382 | 154 ft | 0 kts | 100° |
| 2026-05-03 21:19 | 38.28435 | -0.57381 | 154 ft | 0 kts | 100° |
| 2026-05-03 21:19 | 38.28431 | -0.57353 | 153 ft | 13 kts | 100° |
| 2026-05-03 21:20 | 38.28367 | -0.56884 | 132 ft | 95 kts | 99° |
| 2026-05-03 21:20 | 38.28210 | -0.55755 | 108 ft | 161 kts | 99° |
| 2026-05-03 21:20 | 38.27989 | -0.54267 | 625 ft | 177 kts | 102° |
| 2026-05-03 21:20 | 38.27729 | -0.52726 | 1454 ft | 183 kts | 103° |
| 2026-05-03 21:21 | 38.27467 | -0.51003 | 1786 ft | 215 kts | 101° |
| 2026-05-03 21:21 | 38.27395 | -0.48971 | 2234 ft | 236 kts | 79° |
| 2026-05-03 21:21 | 38.28096 | -0.47041 | 3016 ft | 252 kts | 52° |
| 2026-05-03 21:21 | 38.29187 | -0.45190 | 3685 ft | 269 kts | 55° |
| 2026-05-03 21:22 | 38.30264 | -0.43219 | 4639 ft | 272 kts | 55° |
| 2026-05-03 21:22 | 38.31344 | -0.41205 | 5548 ft | 279 kts | 55° |
| 2026-05-03 21:22 | 38.32438 | -0.39143 | 6448 ft | 284 kts | 55° |
| 2026-05-03 21:22 | 38.33348 | -0.36878 | 7279 ft | 291 kts | 68° |
| 2026-05-03 21:23 | 38.34090 | -0.34452 | 8101 ft | 297 kts | 69° |
| 2026-05-03 21:23 | 38.34854 | -0.31976 | 8930 ft | 304 kts | 69° |
| 2026-05-03 21:23 | 38.35638 | -0.29448 | 9746 ft | 310 kts | 69° |
| 2026-05-03 21:23 | 38.36475 | -0.26876 | 10409 ft | 321 kts | 68° |
| 2026-05-03 21:24 | 38.37373 | -0.24196 | 10794 ft | 341 kts | 68° |
| 2026-05-03 21:24 | 38.38328 | -0.21331 | 11131 ft | 361 kts | 68° |
| 2026-05-03 21:24 | 38.39332 | -0.18310 | 11475 ft | 379 kts | 68° |
| 2026-05-03 21:24 | 38.40377 | -0.15163 | 11924 ft | 392 kts | 68° |
| 2026-05-03 21:25 | 38.41443 | -0.11943 | 12648 ft | 395 kts | 68° |
| 2026-05-03 21:25 | 38.42523 | -0.08683 | 13300 ft | 403 kts | 67° |
| 2026-05-03 21:25 | 38.43968 | -0.05603 | 13966 ft | 408 kts | 49° |
| 2026-05-03 21:25 | 38.46124 | -0.03276 | 14586 ft | 408 kts | 26° |
| 2026-05-03 21:26 | 38.48761 | -0.02037 | 15245 ft | 403 kts | 6° |
| 2026-05-03 21:26 | 38.51531 | -0.01392 | 15850 ft | 408 kts | 7° |
| 2026-05-03 21:26 | 38.54320 | -0.00677 | 16503 ft | 412 kts | 7° |
| 2026-05-03 21:26 | 38.57142 | 0.00035 | 17144 ft | 415 kts | 7° |
| 2026-05-03 21:27 | 38.59992 | 0.00752 | 17795 ft | 419 kts | 7° |
| 2026-05-03 21:27 | 38.62819 | 0.01463 | 18404 ft | 422 kts | 7° |
| 2026-05-03 21:27 | 38.65753 | 0.02202 | 18994 ft | 426 kts | 7° |
| 2026-05-03 21:27 | 38.68675 | 0.02934 | 19577 ft | 429 kts | 7° |
| 2026-05-03 21:28 | 38.71615 | 0.03675 | 20102 ft | 432 kts | 7° |
| 2026-05-03 21:28 | 38.74575 | 0.04421 | 20660 ft | 435 kts | 7° |
| 2026-05-03 21:28 | 38.77559 | 0.05173 | 21190 ft | 439 kts | 7° |
| 2026-05-03 21:28 | 38.80520 | 0.05920 | 21698 ft | 442 kts | 7° |
| 2026-05-03 21:29 | 38.83545 | 0.06684 | 22225 ft | 445 kts | 7° |
| 2026-05-03 21:29 | 38.86594 | 0.07454 | 22726 ft | 448 kts | 7° |
| 2026-05-03 21:29 | 38.89663 | 0.08229 | 23250 ft | 452 kts | 7° |
| 2026-05-03 21:29 | 38.92755 | 0.09012 | 23701 ft | 455 kts | 7° |
| 2026-05-03 21:30 | 38.95876 | 0.09803 | 24107 ft | 458 kts | 7° |
| 2026-05-03 21:30 | 38.99010 | 0.10597 | 24527 ft | 460 kts | 6° |
| 2026-05-03 21:30 | 39.02157 | 0.11395 | 24934 ft | 463 kts | 6° |
| 2026-05-03 21:30 | 39.05315 | 0.12197 | 25343 ft | 465 kts | 6° |
| 2026-05-03 21:31 | 39.08496 | 0.13005 | 25749 ft | 467 kts | 6° |
| 2026-05-03 21:31 | 39.11698 | 0.13820 | 26150 ft | 470 kts | 6° |
| 2026-05-03 21:31 | 39.14913 | 0.14638 | 26545 ft | 472 kts | 6° |
| 2026-05-03 21:31 | 39.18144 | 0.15461 | 26910 ft | 475 kts | 6° |
| 2026-05-03 21:32 | 39.21396 | 0.16290 | 27291 ft | 477 kts | 6° |
| 2026-05-03 21:32 | 39.24661 | 0.17124 | 27654 ft | 480 kts | 6° |
| 2026-05-03 21:32 | 39.27933 | 0.17960 | 28015 ft | 482 kts | 6° |
| 2026-05-03 21:32 | 39.31229 | 0.18803 | 28374 ft | 485 kts | 6° |
| 2026-05-03 21:33 | 39.34550 | 0.19653 | 28735 ft | 487 kts | 6° |
| 2026-05-03 21:33 | 39.37882 | 0.20507 | 29099 ft | 489 kts | 6° |
| 2026-05-03 21:33 | 39.41228 | 0.21365 | 29431 ft | 492 kts | 6° |
| 2026-05-03 21:33 | 39.44587 | 0.22227 | 29817 ft | 492 kts | 6° |
| 2026-05-03 21:34 | 39.47899 | 0.23075 | 30266 ft | 491 kts | 5° |
| 2026-05-03 21:34 | 39.51249 | 0.23934 | 30655 ft | 490 kts | 5° |
| 2026-05-03 21:34 | 39.54587 | 0.24791 | 31033 ft | 490 kts | 5° |
| 2026-05-03 21:34 | 39.57926 | 0.25649 | 31423 ft | 490 kts | 5° |
| 2026-05-03 21:35 | 39.61269 | 0.26511 | 31817 ft | 489 kts | 5° |
| 2026-05-03 21:35 | 39.64603 | 0.27370 | 32200 ft | 488 kts | 5° |
| 2026-05-03 21:35 | 39.67931 | 0.28228 | 32587 ft | 488 kts | 5° |
| 2026-05-03 21:35 | 39.71261 | 0.29088 | 32961 ft | 487 kts | 4° |
| 2026-05-03 21:36 | 39.74579 | 0.29945 | 33325 ft | 486 kts | 4° |
| 2026-05-03 21:36 | 39.77891 | 0.30803 | 33693 ft | 486 kts | 4° |
| 2026-05-03 21:36 | 39.81202 | 0.31660 | 34074 ft | 485 kts | 5° |
| 2026-05-03 21:36 | 39.84508 | 0.32520 | 34456 ft | 482 kts | 5° |
| 2026-05-03 21:37 | 39.86682 | 0.33083 | 34688 ft | 481 kts | 5° |
| 2026-05-03 21:37 | 39.89971 | 0.33938 | 34970 ft | 481 kts | 5° |
| 2026-05-03 21:37 | 39.93252 | 0.34792 | 35248 ft | 481 kts | 5° |
| 2026-05-03 21:37 | 39.96534 | 0.35647 | 35532 ft | 481 kts | 5° |
| 2026-05-03 21:38 | 39.99813 | 0.36501 | 35792 ft | 481 kts | 5° |
| 2026-05-03 21:38 | 40.03083 | 0.37355 | 36079 ft | 480 kts | 5° |
| 2026-05-03 21:38 | 40.06357 | 0.38210 | 36329 ft | 480 kts | 5° |
| 2026-05-03 21:38 | 40.09629 | 0.39065 | 36607 ft | 479 kts | 5° |
| 2026-05-03 21:39 | 40.12894 | 0.39920 | 36857 ft | 479 kts | 5° |
| 2026-05-03 21:39 | 40.16159 | 0.40776 | 37084 ft | 479 kts | 5° |
| 2026-05-03 21:39 | 40.19422 | 0.41633 | 37313 ft | 478 kts | 5° |
| 2026-05-03 21:39 | 40.22689 | 0.42491 | 37543 ft | 478 kts | 5° |
| 2026-05-03 21:40 | 40.25932 | 0.43344 | 37778 ft | 478 kts | 5° |
| 2026-05-03 21:40 | 40.29185 | 0.44202 | 38026 ft | 476 kts | 5° |
| 2026-05-03 21:40 | 40.35667 | 0.45911 | 37997 ft | 472 kts | 5° |
| 2026-05-03 21:41 | 40.43725 | 0.48041 | 38005 ft | 473 kts | 5° |
| 2026-05-03 21:41 | 40.56592 | 0.51439 | 38016 ft | 472 kts | 6° |
| 2026-05-03 21:42 | 40.64714 | 0.53613 | 38023 ft | 472 kts | 6° |
| 2026-05-03 21:42 | 40.72789 | 0.55764 | 38008 ft | 472 kts | 6° |
| 2026-05-03 21:43 | 40.83203 | 0.58551 | 38008 ft | 472 kts | 6° |
| 2026-05-03 21:43 | 40.89643 | 0.60272 | 38002 ft | 472 kts | 6° |
| 2026-05-03 21:44 | 40.96085 | 0.62002 | 37994 ft | 472 kts | 6° |
| 2026-05-03 21:44 | 41.02518 | 0.63734 | 38009 ft | 473 kts | 6° |
| 2026-05-03 21:45 | 41.08968 | 0.65473 | 37997 ft | 473 kts | 6° |
| 2026-05-03 21:45 | 41.15373 | 0.67557 | 38009 ft | 477 kts | 12° |
| 2026-05-03 21:46 | 41.23092 | 0.70636 | 38001 ft | 477 kts | 11° |
| 2026-05-03 21:46 | 41.35834 | 0.75607 | 38024 ft | 477 kts | 11° |
| 2026-05-03 21:47 | 41.48547 | 0.80580 | 38007 ft | 477 kts | 12° |
| 2026-05-03 21:47 | 41.61281 | 0.85543 | 38021 ft | 476 kts | 12° |
| 2026-05-03 21:48 | 41.73965 | 0.90563 | 38012 ft | 476 kts | 12° |
| 2026-05-03 21:48 | 41.86695 | 0.95586 | 38020 ft | 478 kts | 12° |
| 2026-05-03 21:49 | 41.97724 | 0.99938 | 38001 ft | 478 kts | 12° |
| 2026-05-03 21:49 | 42.04109 | 1.02485 | 38006 ft | 479 kts | 12° |
| 2026-05-03 21:50 | 42.10493 | 1.05030 | 38013 ft | 478 kts | 12° |
| 2026-05-03 21:50 | 42.13672 | 1.06083 | 37973 ft | 473 kts | 1° |
| 2026-05-03 21:50 | 42.16907 | 1.06119 | 38028 ft | 461 kts | 351° |
| 2026-05-03 21:51 | 42.23345 | 1.05572 | 38005 ft | 465 kts | 351° |
| 2026-05-03 21:51 | 42.29814 | 1.04916 | 38039 ft | 467 kts | 350° |
| 2026-05-03 21:52 | 42.36277 | 1.04222 | 38047 ft | 466 kts | 350° |
| 2026-05-03 21:52 | 42.43159 | 1.03476 | 38052 ft | 467 kts | 350° |
| 2026-05-03 21:53 | 42.49625 | 1.02773 | 38046 ft | 468 kts | 350° |
| 2026-05-03 21:53 | 42.58596 | 1.01794 | 38030 ft | 467 kts | 350° |
| 2026-05-03 21:54 | 42.66267 | 1.00954 | 38023 ft | 470 kts | 351° |
| 2026-05-03 21:54 | 42.72780 | 1.00241 | 38030 ft | 471 kts | 350° |